Log Lane Village, CO (80705)

3:52 PM MST on February 07, 2016 (GMT -0700)
Fort Morgan | | Change Station
CLOSE
Current Station
Personal Weather Station
Location: Fort Morgan, CO
Elevation: 4334 ft
Nearby Weather Stations

Elev 4334 ft 40.26 °N, 103.80 °W | Updated 11 seconds ago

Overcast
Overcast
31.5 °F
Feels Like 25 °F
N
7.0
Wind Variable Wind from NE
Gusts 8.0 mph

Today
High -- | Low -- °F
--% Chance of Precip.
Yesterday
High -- | Low -- °F
Precip. -- in
Pressure 30.32 in
Visibility 10.0 miles
Clouds Overcast 4800 ft
Windchill 25 °F
Dew Point 18 °F
Humidity 56%
Rainfall 0.00 in
Snow Depth Not available.
6:58 AM 5:20 PM
Waning Crescent, 1% visible
METAR KFMM 072235Z AUTO 36016KT 10SM OVC048 M01/M07 A3032 RMK AO2 T10061074
Pressure 30.32 in
Visibility 10.0 miles
Clouds Overcast 4800 ft
Windchill 25 °F
Dew Point 18 °F
Humidity 56%
Rainfall 0.00 in
Snow Depth Not available.
6:58 AM 5:20 PM
Waning Crescent, 1% visible
METAR KFMM 072235Z AUTO 36016KT 10SM OVC048 M01/M07 A3032 RMK AO2 T10061074

10-Day Weather Forecast

Almanac

Astronomy

Feb. 07, 2016 Rise Set
Actual Time
Civil Twilight
Nautical Twilight
Astronomical Twilight
Moon
Length of Visible Light
Length of Day
Tomorrow will be .
, % of the Moon is Illuminated

Today's Extremes

State Highs State Lows

Community

WunderPhotos

Upload Photos

1,891,323 photos uploaded!

WunderBlog® & News

Nearby

Air Quality

  Air Quality AQ Index Pollutant
Not available.

Snow Depth

Station Depth Elevation

Earthquake Activity

City Distance Mag. Time & Date
Minimum magnitude displayed is 2.5.

Coastal Water Temperatures

Place Temperature

Stations

Nearby Weather Stations

Station Location Temp. Windchill Dew Point Humidity Wind Precip. Elev Updated Type
                   

Watches & Warnings

There are currently no watches in effect.